EDT,Max TemperatureF,Mean TemperatureF,Min TemperatureF,Max Dew PointF,MeanDew PointF,Min DewpointF,Max Humidity, Mean Humidity, Min Humidity, Max Sea Level PressureIn, Mean Sea Level PressureIn, Min Sea Level PressureIn, Max VisibilityMiles, Mean VisibilityMiles, Min VisibilityMiles, Max Wind SpeedMPH, Mean Wind SpeedMPH, Max Gust SpeedMPH,PrecipitationIn, CloudCover, Events, WindDirDegrees
2013-3-1,33,30,26,31,25,23,92,82,72,29.71,29.66,29.60,10,7,1,16,9,20,0.02,8,Snow,10
2013-3-2,36,32,28,32,29,25,92,87,82,29.65,29.59,29.55,10,6,1,16,11,21,0.09,8,Snow,348
2013-3-3,37,34,31,34,31,28,96,86,76,29.59,29.50,29.41,10,7,1,15,9,20,0.09,8,Rain-Snow,348
2013-3-4,39,36,33,32,30,28,96,80,64,29.78,29.50,29.40,10,8,2,25,12,36,0.03,8,Snow,22
2013-3-5,40,36,32,29,27,24,82,73,64,30.26,30.05,29.80,10,10,9,18,11,28,T,8,,37
2013-3-6,36,32,28,25,22,18,78,67,56,30.42,30.36,30.25,10,10,10,18,9,24,T,8,,63
2013-3-7,32,30,27,21,20,18,75,67,59,30.40,30.35,30.29,10,10,10,17,11,23,0.00,8,,65
2013-3-8,40,32,23,21,19,17,81,63,44,30.35,30.31,30.24,10,10,10,15,9,22,0.00,1,,23
2013-3-9,41,32,22,22,21,18,88,66,44,30.42,30.36,30.31,10,10,10,12,5,14,0.00,3,,46
2013-3-10,35,28,20,24,21,18,92,76,59,30.43,30.34,30.20,10,10,10,15,7,21,0.00,6,,151
2013-3-11,43,37,31,31,29,24,85,74,62,30.19,30.13,30.05,10,10,10,17,10,21,T,5,,166
2013-3-12,44,40,36,40,37,31,93,88,82,30.08,30.00,29.85,10,9,2,18,12,23,0.27,8,Rain,162
2013-3-13,44,39,33,43,37,24,100,80,59,29.81,29.65,29.58,10,6,0,18,7,25,0.07,8,Fog-Rain,246
2013-3-14,39,31,23,27,22,16,88,64,40,29.65,29.57,29.52,10,7,1,18,8,26,0.02,7,Snow,273
2013-3-15,25,20,14,18,10,7,81,66,50,29.70,29.63,29.56,10,7,1,12,7,,T,7,Snow,325
2013-3-16,26,19,12,7,4,1,73,55,36,29.84,29.71,29.62,10,10,10,18,10,22,0.00,0,,317
2013-3-17,18,12,5,10,3,-11,83,64,45,30.19,29.90,29.79,10,5,0,24,10,33,0.03,5,Snow,301
2013-3-18,24,12,0,-2,-6,-11,65,47,29,30.34,30.29,30.22,10,10,10,23,8,29,0.00,0,,302
2013-3-19,28,17,5,14,4,-3,80,57,33,30.33,30.10,29.83,10,8,0,16,7,21,0.20,5,Fog-Snow,80
2013-3-20,27,21,15,23,18,12,88,82,75,29.84,29.48,29.35,10,2,0,17,11,23,0.71,8,Fog-Snow,316
2013-3-21,34,26,17,23,19,16,92,70,47,29.69,29.62,29.49,10,9,2,16,8,23,T,6,Snow,210
2013-3-22,34,23,12,25,19,10,96,74,51,29.63,29.49,29.35,10,7,1,23,9,28,0.01,6,Snow,314
2013-3-23,35,31,26,30,25,19,89,79,69,29.51,29.29,29.22,10,4,1,23,12,29,0.06,8,Snow,276
2013-3-24,41,32,22,31,25,18,92,73,54,29.78,29.65,29.51,10,10,7,23,10,29,0.01,6,Rain-Snow,335
2013-3-25,38,30,22,27,23,18,92,72,52,29.78,29.74,29.69,10,10,10,15,7,18,0.00,6,,1
2013-3-26,39,31,22,31,26,17,89,77,64,29.66,29.61,29.55,10,6,2,26,13,31,0.02,7,Rain-Snow,335
2013-3-27,43,38,33,34,31,29,96,79,62,29.88,29.71,29.61,10,7,2,17,8,23,0.11,8,Rain-Snow,9
2013-3-28,48,42,35,32,27,22,89,64,38,29.91,29.88,29.86,10,10,10,16,8,18,T,6,,343
2013-3-29,47,37,27,34,25,16,92,63,33,29.96,29.91,29.87,10,10,10,16,5,20,0.00,4,,344
2013-3-30,46,34,22,21,17,9,81,53,25,30.05,29.99,29.96,10,10,7,14,4,17,0.00,0,,337
2013-3-31,50,36,22,19,17,14,84,54,24,30.08,30.00,29.87,10,10,10,15,6,20,0.00,0,,167